Time,TemperatureF,DewpointF,PressureIn,WindDirection,WindDirectionDegrees,WindSpeedMPH,WindSpeedGustMPH,Humidity,HourlyPrecipIn,Conditions,Clouds,dailyrainin,SolarRadiationWatts/m^2,SoftwareType,DateUTC
2013-08-09 00:01:00,60.0,49.0,-100.00,SSW,200,0.0,3.0,66,0.00,,,0.00,0.000000,,2013-08-09 07:01:00,
2013-08-09 00:12:00,60.0,49.0,-100.00,SSW,200,0.0,3.0,66,0.00,,,0.00,0.000000,,2013-08-09 07:12:00,
2013-08-09 00:21:00,60.0,49.0,-100.00,SSW,200,0.0,3.0,66,0.00,,,0.00,0.000000,,2013-08-09 07:21:00,
2013-08-09 00:53:00,60.0,45.0,-100.00,SSE,149,0.0,4.0,58,0.00,,,0.00,0.000000,,2013-08-09 07:53:00,
2013-08-09 01:02:00,60.0,45.0,-100.00,SSE,149,0.0,4.0,58,0.00,,,0.00,0.000000,,2013-08-09 08:02:00,
2013-08-09 01:12:00,60.0,45.0,-100.00,SSE,149,0.0,4.0,58,0.00,,,0.00,0.000000,,2013-08-09 08:12:00,
2013-08-09 01:21:00,60.0,45.0,-100.00,SSE,149,0.0,4.0,58,0.00,,,0.00,0.000000,,2013-08-09 08:21:00,
2013-08-09 01:53:00,60.0,44.0,-100.00,SE,139,1.0,3.0,56,0.00,,,0.00,0.000000,,2013-08-09 08:53:00,
2013-08-09 02:02:00,60.0,44.0,-100.00,SE,139,1.0,3.0,56,0.00,,,0.00,0.000000,,2013-08-09 09:02:00,
2013-08-09 02:12:00,60.0,44.0,-100.00,SE,139,1.0,3.0,56,0.00,,,0.00,0.000000,,2013-08-09 09:12:00,
2013-08-09 02:22:00,60.0,44.0,-100.00,SE,139,1.0,3.0,56,0.00,,,0.00,0.000000,,2013-08-09 09:22:00,
2013-08-09 02:52:00,61.0,45.0,-100.00,South,188,0.0,2.0,55,0.00,,,0.00,0.000000,,2013-08-09 09:52:00,
2013-08-09 03:01:00,61.0,45.0,-100.00,South,188,0.0,2.0,55,0.00,,,0.00,0.000000,,2013-08-09 10:01:00,
2013-08-09 03:12:00,61.0,45.0,-100.00,South,188,0.0,2.0,55,0.00,,,0.00,0.000000,,2013-08-09 10:12:00,
2013-08-09 03:21:00,61.0,45.0,-100.00,South,188,0.0,2.0,55,0.00,,,0.00,0.000000,,2013-08-09 10:21:00,
2013-08-09 03:53:00,62.0,43.0,-100.00,SE,138,1.0,3.0,50,0.00,,,0.00,0.000000,,2013-08-09 10:53:00,
2013-08-09 04:01:00,62.0,43.0,-100.00,SE,138,1.0,3.0,50,0.00,,,0.00,0.000000,,2013-08-09 11:01:00,
2013-08-09 04:11:00,62.0,43.0,-100.00,SE,138,1.0,3.0,50,0.00,,,0.00,0.000000,,2013-08-09 11:11:00,
2013-08-09 04:22:00,62.0,43.0,-100.00,SE,138,1.0,3.0,50,0.00,,,0.00,0.000000,,2013-08-09 11:22:00,
2013-08-09 04:53:00,62.0,44.0,-100.00,SE,137,1.0,3.0,52,0.00,,,0.00,0.000000,,2013-08-09 11:53:00,
2013-08-09 05:02:00,62.0,44.0,-100.00,SE,137,1.0,3.0,52,0.00,,,0.00,0.000000,,2013-08-09 12:02:00,
2013-08-09 05:12:00,62.0,44.0,-100.00,SE,137,1.0,3.0,52,0.00,,,0.00,0.000000,,2013-08-09 12:12:00,
2013-08-09 05:22:00,62.0,44.0,-100.00,SE,137,1.0,3.0,52,0.00,,,0.00,0.000000,,2013-08-09 12:22:00,
2013-08-09 05:52:00,62.0,43.0,-100.00,ESE,115,1.0,4.0,49,0.00,,,-99.99,0.000000,,2013-08-09 12:52:00,
2013-08-09 06:01:00,62.0,43.0,-100.00,ESE,115,1.0,4.0,49,0.00,,,-99.99,0.000000,,2013-08-09 13:01:00,
2013-08-09 06:12:00,62.0,43.0,-100.00,ESE,115,1.0,4.0,49,0.00,,,-99.99,0.000000,,2013-08-09 13:12:00,
2013-08-09 06:23:00,62.0,43.0,-100.00,ESE,115,1.0,4.0,49,0.00,,,-99.99,0.000000,,2013-08-09 13:23:00,
2013-08-09 06:52:00,61.0,43.0,-100.00,ESE,122,2.0,4.0,51,0.00,,,0.00,3.000000,,2013-08-09 13:52:00,
2013-08-09 07:02:00,61.0,43.0,-100.00,ESE,122,2.0,4.0,51,0.00,,,0.00,3.000000,,2013-08-09 14:02:00,
2013-08-09 07:11:00,61.0,43.0,-100.00,ESE,122,2.0,4.0,51,0.00,,,0.00,3.000000,,2013-08-09 14:11:00,
2013-08-09 07:22:00,61.0,43.0,-100.00,ESE,122,2.0,4.0,51,0.00,,,0.00,3.000000,,2013-08-09 14:22:00,
2013-08-09 07:53:00,65.0,45.0,-100.00,SE,139,0.0,4.0,49,0.00,,,0.00,63.000000,,2013-08-09 14:53:00,
2013-08-09 08:01:00,65.0,45.0,-100.00,SE,139,0.0,4.0,49,0.00,,,0.00,63.000000,,2013-08-09 15:01:00,
2013-08-09 08:11:00,65.0,45.0,-100.00,SE,139,0.0,4.0,49,0.00,,,0.00,63.000000,,2013-08-09 15:11:00,
2013-08-09 08:22:00,65.0,45.0,-100.00,SE,139,0.0,4.0,49,0.00,,,0.00,63.000000,,2013-08-09 15:22:00,
2013-08-09 08:53:00,70.0,50.0,-100.00,West,266,0.0,2.0,49,0.00,,,0.00,246.000000,,2013-08-09 15:53:00,
2013-08-09 09:01:00,70.0,50.0,-100.00,West,266,0.0,2.0,49,0.00,,,0.00,246.000000,,2013-08-09 16:01:00,
2013-08-09 09:11:00,70.0,50.0,-100.00,West,266,0.0,2.0,49,0.00,,,0.00,246.000000,,2013-08-09 16:11:00,
2013-08-09 09:22:00,70.0,50.0,-100.00,West,266,0.0,2.0,49,0.00,,,0.00,246.000000,,2013-08-09 16:22:00,
2013-08-09 09:53:00,74.0,51.0,-100.00,NW,308,0.0,3.0,45,0.00,,,0.00,416.000000,,2013-08-09 16:53:00,
2013-08-09 10:02:00,74.0,51.0,-100.00,NW,308,0.0,3.0,45,0.00,,,0.00,416.000000,,2013-08-09 17:02:00,
2013-08-09 10:11:00,74.0,51.0,-100.00,NW,308,0.0,3.0,45,0.00,,,0.00,416.000000,,2013-08-09 17:11:00,
2013-08-09 10:22:00,74.0,51.0,-100.00,NW,308,0.0,3.0,45,0.00,,,0.00,416.000000,,2013-08-09 17:22:00,
2013-08-09 10:52:00,75.0,50.0,-100.00,North,3,3.0,6.0,42,0.00,,,0.00,567.000000,,2013-08-09 17:52:00,
2013-08-09 11:01:00,75.0,50.0,-100.00,North,3,3.0,6.0,42,0.00,,,0.00,567.000000,,2013-08-09 18:01:00,
2013-08-09 11:11:00,75.0,50.0,-100.00,North,3,3.0,6.0,42,0.00,,,0.00,567.000000,,2013-08-09 18:11:00,
2013-08-09 11:22:00,75.0,50.0,-100.00,North,3,3.0,6.0,42,0.00,,,0.00,567.000000,,2013-08-09 18:22:00,
2013-08-09 11:53:00,77.0,52.0,-100.00,NNW,345,4.0,7.0,42,0.00,,,0.00,690.000000,,2013-08-09 18:53:00,
2013-08-09 12:02:00,77.0,52.0,-100.00,NNW,345,4.0,7.0,42,0.00,,,0.00,690.000000,,2013-08-09 19:02:00,
2013-08-09 12:11:00,77.0,52.0,-100.00,NNW,345,4.0,7.0,42,0.00,,,0.00,690.000000,,2013-08-09 19:11:00,
2013-08-09 12:22:00,77.0,52.0,-100.00,NNW,345,4.0,7.0,42,0.00,,,0.00,690.000000,,2013-08-09 19:22:00,
2013-08-09 12:52:00,78.0,52.0,-100.00,NNW,339,3.0,12.0,41,0.00,,,0.00,780.000000,,2013-08-09 19:52:00,
2013-08-09 13:02:00,78.0,52.0,-100.00,NNW,339,3.0,12.0,41,0.00,,,0.00,780.000000,,2013-08-09 20:02:00,
2013-08-09 13:11:00,78.0,52.0,-100.00,NNW,339,3.0,12.0,41,0.00,,,0.00,780.000000,,2013-08-09 20:11:00,
2013-08-09 13:22:00,78.0,52.0,-100.00,NNW,339,3.0,12.0,41,0.00,,,0.00,780.000000,,2013-08-09 20:22:00,
2013-08-09 13:52:00,80.0,52.0,-100.00,NW,318,4.0,12.0,38,0.00,,,0.00,822.000000,,2013-08-09 20:52:00,
2013-08-09 14:01:00,80.0,52.0,-100.00,NW,318,4.0,12.0,38,0.00,,,0.00,822.000000,,2013-08-09 21:01:00,
2013-08-09 14:12:00,80.0,52.0,-100.00,NW,318,4.0,12.0,38,0.00,,,0.00,822.000000,,2013-08-09 21:12:00,
2013-08-09 14:22:00,80.0,52.0,-100.00,NW,318,4.0,12.0,38,0.00,,,0.00,822.000000,,2013-08-09 21:22:00,
2013-08-09 14:52:00,81.0,52.0,-100.00,NW,311,4.0,12.0,37,0.00,,,0.00,818.000000,,2013-08-09 21:52:00,
2013-08-09 15:01:00,81.0,52.0,-100.00,NW,311,4.0,12.0,37,0.00,,,0.00,818.000000,,2013-08-09 22:01:00,
2013-08-09 15:11:00,81.0,52.0,-100.00,NW,311,4.0,12.0,37,0.00,,,0.00,818.000000,,2013-08-09 22:11:00,
2013-08-09 15:22:00,81.0,52.0,-100.00,NW,311,4.0,12.0,37,0.00,,,0.00,818.000000,,2013-08-09 22:22:00,
2013-08-09 15:52:00,81.0,51.0,-100.00,North,350,5.0,10.0,35,0.00,,,0.00,760.000000,,2013-08-09 22:52:00,
2013-08-09 16:01:00,81.0,51.0,-100.00,North,350,5.0,10.0,35,0.00,,,0.00,760.000000,,2013-08-09 23:01:00,
2013-08-09 16:11:00,81.0,51.0,-100.00,North,350,5.0,10.0,35,0.00,,,0.00,760.000000,,2013-08-09 23:11:00,
2013-08-09 16:21:00,81.0,51.0,-100.00,North,350,5.0,10.0,35,0.00,,,0.00,760.000000,,2013-08-09 23:21:00,
2013-08-09 16:52:00,77.0,55.0,-100.00,WNW,299,3.0,10.0,47,0.00,,,0.00,390.000000,,2013-08-09 23:52:00,
2013-08-09 17:01:00,77.0,55.0,-100.00,WNW,299,3.0,10.0,47,0.00,,,0.00,390.000000,,2013-08-10 00:01:00,
2013-08-09 17:11:00,77.0,55.0,-100.00,WNW,299,3.0,10.0,47,0.00,,,0.00,390.000000,,2013-08-10 00:11:00,
2013-08-09 17:21:00,77.0,55.0,-100.00,WNW,299,3.0,10.0,47,0.00,,,0.00,390.000000,,2013-08-10 00:21:00,
2013-08-09 17:52:00,75.0,56.0,-100.00,WNW,288,3.0,9.0,52,0.00,,,0.00,159.000000,,2013-08-10 00:52:00,
2013-08-09 18:01:00,75.0,56.0,-100.00,WNW,288,3.0,9.0,52,0.00,,,0.00,159.000000,,2013-08-10 01:01:00,
2013-08-09 18:11:00,75.0,56.0,-100.00,WNW,288,3.0,9.0,52,0.00,,,0.00,159.000000,,2013-08-10 01:11:00,
2013-08-09 18:21:00,75.0,56.0,-100.00,WNW,288,3.0,9.0,52,0.00,,,0.00,159.000000,,2013-08-10 01:21:00,
2013-08-09 18:52:00,74.0,57.0,-100.00,West,270,4.0,8.0,55,0.00,,,0.00,218.000000,,2013-08-10 01:52:00,
2013-08-09 19:03:00,74.0,57.0,-100.00,West,270,4.0,8.0,55,0.00,,,0.00,218.000000,,2013-08-10 02:03:00,
2013-08-09 19:11:00,74.0,57.0,-100.00,West,270,4.0,8.0,55,0.00,,,0.00,218.000000,,2013-08-10 02:11:00,
2013-08-09 19:21:00,74.0,57.0,-100.00,West,270,4.0,8.0,55,0.00,,,0.00,218.000000,,2013-08-10 02:21:00,
2013-08-09 19:52:00,72.0,57.0,-100.00,West,264,4.0,7.0,59,0.00,,,0.00,127.000000,,2013-08-10 02:52:00,
2013-08-09 20:01:00,72.0,57.0,-100.00,West,264,4.0,7.0,59,0.00,,,0.00,127.000000,,2013-08-10 03:01:00,
2013-08-09 20:11:00,72.0,57.0,-100.00,West,264,4.0,7.0,59,0.00,,,0.00,127.000000,,2013-08-10 03:11:00,
2013-08-09 20:21:00,72.0,57.0,-100.00,West,264,4.0,7.0,59,0.00,,,0.00,127.000000,,2013-08-10 03:21:00,
2013-08-09 20:52:00,69.0,57.0,-100.00,SE,126,1.0,7.0,65,0.00,,,0.00,46.000000,,2013-08-10 03:52:00,
2013-08-09 21:01:00,69.0,57.0,-100.00,SE,126,1.0,7.0,65,0.00,,,0.00,46.000000,,2013-08-10 04:01:00,
2013-08-09 21:12:00,69.0,57.0,-100.00,SE,126,1.0,7.0,65,0.00,,,0.00,46.000000,,2013-08-10 04:12:00,
2013-08-09 21:22:00,69.0,57.0,-100.00,SE,126,1.0,7.0,65,0.00,,,0.00,46.000000,,2013-08-10 04:22:00,
2013-08-09 21:53:00,65.0,57.0,-100.00,SE,138,2.0,4.0,75,0.00,,,0.00,3.000000,,2013-08-10 04:53:00,
2013-08-09 22:02:00,65.0,57.0,-100.00,SE,138,2.0,4.0,75,0.00,,,0.00,3.000000,,2013-08-10 05:02:00,
2013-08-09 22:11:00,65.0,57.0,-100.00,SE,138,2.0,4.0,75,0.00,,,0.00,3.000000,,2013-08-10 05:11:00,
2013-08-09 22:21:00,65.0,57.0,-100.00,SE,138,2.0,4.0,75,0.00,,,0.00,3.000000,,2013-08-10 05:21:00,
2013-08-09 22:52:00,64.0,56.0,-100.00,ESE,115,0.0,3.0,76,0.00,,,0.00,0.000000,,2013-08-10 05:52:00,
2013-08-09 23:02:00,64.0,56.0,-100.00,ESE,115,0.0,3.0,76,0.00,,,0.00,0.000000,,2013-08-10 06:02:00,
2013-08-09 23:11:00,64.0,56.0,-100.00,ESE,115,0.0,3.0,76,0.00,,,0.00,0.000000,,2013-08-10 06:11:00,
2013-08-09 23:22:00,64.0,56.0,-100.00,ESE,115,0.0,3.0,76,0.00,,,0.00,0.000000,,2013-08-10 06:22:00,
2013-08-09 23:53:00,63.0,55.0,-100.00,South,170,1.0,3.0,74,0.00,,,0.00,0.000000,,2013-08-10 06:53:00,